sensor_id;sensor_type;location;lat;lon;timestamp;pressure;altitude;pressure_sealevel;temperature;humidity
10342;BME280;5216;54.602;18.356;2024-03-23T00:54:04;100517.19;;;10.27;67.71
10342;BME280;5216;54.602;18.356;2024-03-23T00:56:30;100516.19;;;10.27;67.93
10342;BME280;5216;54.602;18.356;2024-03-23T00:58:55;100519.72;;;10.28;67.73
10342;BME280;5216;54.602;18.356;2024-03-23T01:01:21;100507.34;;;10.27;68.21
10342;BME280;5216;54.602;18.356;2024-03-23T01:03:47;100502.00;;;10.27;67.41
10342;BME280;5216;54.602;18.356;2024-03-23T01:06:12;100498.19;;;10.29;67.24
10342;BME280;5216;54.602;18.356;2024-03-23T01:08:38;100498.06;;;10.31;67.35
10342;BME280;5216;54.602;18.356;2024-03-23T01:11:03;100499.78;;;10.32;67.71
10342;BME280;5216;54.602;18.356;2024-03-23T01:13:29;100514.66;;;10.34;67.71
10342;BME280;5216;54.602;18.356;2024-03-23T01:15:56;100512.13;;;10.33;67.21
10342;BME280;5216;54.602;18.356;2024-03-23T01:18:22;100492.47;;;10.34;67.23
10342;BME280;5216;54.602;18.356;2024-03-23T01:20:48;100495.25;;;10.32;67.32
10342;BME280;5216;54.602;18.356;2024-03-23T01:23:14;100501.44;;;10.33;67.41
10342;BME280;5216;54.602;18.356;2024-03-23T01:25:40;100498.91;;;10.31;67.26
10342;BME280;5216;54.602;18.356;2024-03-23T01:28:06;100507.91;;;10.30;66.71
10342;BME280;5216;54.602;18.356;2024-03-23T01:30:32;100501.03;;;10.28;66.92
10342;BME280;5216;54.602;18.356;2024-03-23T01:32:58;100491.44;;;10.26;66.83
10342;BME280;5216;54.602;18.356;2024-03-23T01:35:24;100498.63;;;10.25;67.35
10342;BME280;5216;54.602;18.356;2024-03-23T01:37:49;100495.81;;;10.27;67.03
10342;BME280;5216;54.602;18.356;2024-03-23T01:40:19;100492.44;;;10.25;67.19
10342;BME280;5216;54.602;18.356;2024-03-23T01:45:23;100510.13;;;10.26;66.94
10342;BME280;5216;54.602;18.356;2024-03-23T01:47:52;100502.28;;;10.24;66.87
10342;BME280;5216;54.602;18.356;2024-03-23T01:50:19;100503.13;;;10.25;66.54
10342;BME280;5216;54.602;18.356;2024-03-23T01:52:46;100501.41;;;10.24;66.44
10342;BME280;5216;54.602;18.356;2024-03-23T01:55:12;100496.38;;;10.21;67.05
10342;BME280;5216;54.602;18.356;2024-03-23T01:57:37;100491.88;;;10.21;66.79
10342;BME280;5216;54.602;18.356;2024-03-23T02:00:04;100500.00;;;10.20;66.96
10342;BME280;5216;54.602;18.356;2024-03-23T02:02:29;100499.28;;;10.18;66.73
10342;BME280;5216;54.602;18.356;2024-03-23T02:04:55;100513.53;;;10.18;66.63
10342;BME280;5216;54.602;18.356;2024-03-23T02:07:21;100512.53;;;10.19;67.14
10342;BME280;5216;54.602;18.356;2024-03-23T02:09:47;100501.72;;;10.21;66.59
10342;BME280;5216;54.602;18.356;2024-03-23T02:12:12;100505.34;;;10.20;66.60
10342;BME280;5216;54.602;18.356;2024-03-23T02:14:38;100507.03;;;10.21;66.45
10342;BME280;5216;54.602;18.356;2024-03-23T02:17:04;100496.38;;;10.21;66.48
10342;BME280;5216;54.602;18.356;2024-03-23T02:19:29;100486.66;;;10.20;66.25
10342;BME280;5216;54.602;18.356;2024-03-23T02:21:55;100482.00;;;10.22;66.28
10342;BME280;5216;54.602;18.356;2024-03-23T02:24:21;100472.03;;;10.24;66.79
10342;BME280;5216;54.602;18.356;2024-03-23T02:26:46;100474.56;;;10.25;66.81
10342;BME280;5216;54.602;18.356;2024-03-23T02:29:14;100477.13;;;10.27;66.19
10342;BME280;5216;54.602;18.356;2024-03-23T02:31:40;100472.47;;;10.28;66.45
10342;BME280;5216;54.602;18.356;2024-03-23T02:34:06;100477.53;;;10.31;66.13
10342;BME280;5216;54.602;18.356;2024-03-23T02:36:31;100480.06;;;10.33;66.81
10342;BME280;5216;54.602;18.356;2024-03-23T02:38:57;100467.56;;;10.33;66.04
10342;BME280;5216;54.602;18.356;2024-03-23T02:41:23;100472.75;;;10.35;65.95
10342;BME280;5216;54.602;18.356;2024-03-23T02:43:49;100468.25;;;10.35;66.24
10342;BME280;5216;54.602;18.356;2024-03-23T02:46:15;100460.25;;;10.35;65.95
10342;BME280;5216;54.602;18.356;2024-03-23T02:48:41;100452.22;;;10.35;66.18
10342;BME280;5216;54.602;18.356;2024-03-23T02:51:07;100450.56;;;10.34;66.08
10342;BME280;5216;54.602;18.356;2024-03-23T02:53:32;100443.50;;;10.33;66.19
10342;BME280;5216;54.602;18.356;2024-03-23T02:55:58;100445.22;;;10.34;65.92
10342;BME280;5216;54.602;18.356;2024-03-23T02:58:24;100448.84;;;10.33;66.16
10342;BME280;5216;54.602;18.356;2024-03-23T03:00:50;100448.84;;;10.33;65.72
10342;BME280;5216;54.602;18.356;2024-03-23T03:03:15;100451.53;;;10.33;65.58
10342;BME280;5216;54.602;18.356;2024-03-23T03:05:41;100459.97;;;10.29;65.93
10342;BME280;5216;54.602;18.356;2024-03-23T03:08:07;100465.44;;;10.27;66.01
10342;BME280;5216;54.602;18.356;2024-03-23T03:10:32;100462.06;;;10.26;65.92
10342;BME280;5216;54.602;18.356;2024-03-23T03:13:00;100447.75;;;10.27;65.70
10342;BME280;5216;54.602;18.356;2024-03-23T03:15:26;100435.34;;;10.26;65.91
10342;BME280;5216;54.602;18.356;2024-03-23T03:17:51;100433.38;;;10.27;66.12
10342;BME280;5216;54.602;18.356;2024-03-23T03:20:17;100446.91;;;10.26;66.40
10342;BME280;5216;54.602;18.356;2024-03-23T03:22:43;100450.53;;;10.25;66.00
10342;BME280;5216;54.602;18.356;2024-03-23T03:25:09;100451.53;;;10.24;65.88
10342;BME280;5216;54.602;18.356;2024-03-23T03:27:35;100428.59;;;10.22;65.83
10342;BME280;5216;54.602;18.356;2024-03-23T03:30:01;100440.41;;;10.19;65.94
10342;BME280;5216;54.602;18.356;2024-03-23T03:32:30;100442.38;;;10.17;65.73
10342;BME280;5216;54.602;18.356;2024-03-23T03:34:56;100448.56;;;10.18;65.78
10342;BME280;5216;54.602;18.356;2024-03-23T03:37:21;100439.84;;;10.16;65.64
10342;BME280;5216;54.602;18.356;2024-03-23T03:39:47;100436.47;;;10.14;66.25
10342;BME280;5216;54.602;18.356;2024-03-23T03:42:13;100431.28;;;10.12;66.30
10342;BME280;5216;54.602;18.356;2024-03-23T03:44:38;100428.44;;;10.14;66.11
10342;BME280;5216;54.602;18.356;2024-03-23T03:47:05;100433.09;;;10.12;65.96
10342;BME280;5216;54.602;18.356;2024-03-23T03:49:31;100412.72;;;10.11;66.42
10342;BME280;5216;54.602;18.356;2024-03-23T03:51:57;100410.06;;;10.11;66.48
10342;BME280;5216;54.602;18.356;2024-03-23T03:54:22;100406.69;;;10.09;66.10
10342;BME280;5216;54.602;18.356;2024-03-23T03:56:48;100406.94;;;10.06;66.12
10342;BME280;5216;54.602;18.356;2024-03-23T03:59:13;100415.25;;;10.03;65.98
10342;BME280;5216;54.602;18.356;2024-03-23T04:01:39;100401.44;;;9.98;66.27
10342;BME280;5216;54.602;18.356;2024-03-23T04:04:05;100406.78;;;9.98;66.42
10342;BME280;5216;54.602;18.356;2024-03-23T04:06:32;100411.41;;;9.96;66.33
10342;BME280;5216;54.602;18.356;2024-03-23T04:08:59;100412.41;;;9.95;66.39
10342;BME280;5216;54.602;18.356;2024-03-23T04:11:24;100415.09;;;9.95;66.33
10342;BME280;5216;54.602;18.356;2024-03-23T04:13:50;100404.66;;;9.92;66.19
10342;BME280;5216;54.602;18.356;2024-03-23T04:16:29;100401.56;;;9.87;66.27
10342;BME280;5216;54.602;18.356;2024-03-23T04:18:55;100401.56;;;9.87;66.44
10342;BME280;5216;54.602;18.356;2024-03-23T04:21:24;100389.16;;;9.86;66.63
10342;BME280;5216;54.602;18.356;2024-03-23T04:23:49;100388.59;;;9.83;66.69
10342;BME280;5216;54.602;18.356;2024-03-23T04:26:15;100396.72;;;9.81;66.65
10342;BME280;5216;54.602;18.356;2024-03-23T04:28:41;100402.06;;;9.81;66.92
10342;BME280;5216;54.602;18.356;2024-03-23T04:31:07;100387.75;;;9.82;66.63
10342;BME280;5216;54.602;18.356;2024-03-23T04:33:32;100406.31;;;9.84;66.90
10342;BME280;5216;54.602;18.356;2024-03-23T04:35:59;100401.09;;;9.82;66.44
10342;BME280;5216;54.602;18.356;2024-03-23T04:38:25;100400.41;;;9.80;66.52
10342;BME280;5216;54.602;18.356;2024-03-23T04:40:57;100399.56;;;9.80;66.82
10342;BME280;5216;54.602;18.356;2024-03-23T04:43:23;100385.50;;;9.78;67.18
10342;BME280;5216;54.602;18.356;2024-03-23T04:45:49;100392.25;;;9.82;66.80
10342;BME280;5216;54.602;18.356;2024-03-23T04:48:15;100385.09;;;9.82;66.86
10342;BME280;5216;54.602;18.356;2024-03-23T04:50:40;100388.59;;;9.83;66.46
10342;BME280;5216;54.602;18.356;2024-03-23T04:53:07;100381.59;;;9.82;66.71
10342;BME280;5216;54.602;18.356;2024-03-23T04:55:32;100384.09;;;9.83;66.79
10342;BME280;5216;54.602;18.356;2024-03-23T04:57:58;100384.97;;;9.84;66.43
10342;BME280;5216;54.602;18.356;2024-03-23T05:00:23;100376.81;;;9.85;66.66
10342;BME280;5216;54.602;18.356;2024-03-23T05:02:50;100367.00;;;9.86;66.86
10342;BME280;5216;54.602;18.356;2024-03-23T05:05:16;100367.81;;;9.86;66.25
10342;BME280;5216;54.602;18.356;2024-03-23T05:07:41;100370.38;;;9.88;66.01
10342;BME280;5216;54.602;18.356;2024-03-23T05:10:09;100377.66;;;9.86;66.74
10342;BME280;5216;54.602;18.356;2024-03-23T05:12:39;100373.03;;;9.88;66.42
10342;BME280;5216;54.602;18.356;2024-03-23T05:15:05;100390.72;;;9.89;66.22
10342;BME280;5216;54.602;18.356;2024-03-23T05:17:32;100390.72;;;9.89;65.90
10342;BME280;5216;54.602;18.356;2024-03-23T05:19:58;100389.88;;;9.88;66.48
10342;BME280;5216;54.602;18.356;2024-03-23T05:22:24;100392.53;;;9.88;66.24
10342;BME280;5216;54.602;18.356;2024-03-23T05:24:49;100393.38;;;9.89;66.36
10342;BME280;5216;54.602;18.356;2024-03-23T05:27:15;100391.84;;;9.86;66.34
10342;BME280;5216;54.602;18.356;2024-03-23T05:29:40;100376.81;;;9.85;66.19
10342;BME280;5216;54.602;18.356;2024-03-23T05:32:06;100382.16;;;9.85;66.14
10342;BME280;5216;54.602;18.356;2024-03-23T05:34:32;100377.66;;;9.86;66.47
10342;BME280;5216;54.602;18.356;2024-03-23T05:36:58;100375.13;;;9.84;66.10
10342;BME280;5216;54.602;18.356;2024-03-23T05:39:24;100380.72;;;9.81;66.21
10342;BME280;5216;54.602;18.356;2024-03-23T05:41:49;100382.44;;;9.82;66.55
10342;BME280;5216;54.602;18.356;2024-03-23T05:44:15;100378.06;;;9.81;66.66
10342;BME280;5216;54.602;18.356;2024-03-23T05:46:41;100382.44;;;9.82;66.68
10342;BME280;5216;54.602;18.356;2024-03-23T05:49:08;100376.81;;;9.85;66.02
10342;BME280;5216;54.602;18.356;2024-03-23T05:51:34;100370.50;;;9.86;66.17
10342;BME280;5216;54.602;18.356;2024-03-23T05:54:00;100365.84;;;9.88;66.21
10342;BME280;5216;54.602;18.356;2024-03-23T05:56:26;100361.34;;;9.89;66.11
10342;BME280;5216;54.602;18.356;2024-03-23T05:58:52;100359.09;;;9.84;65.93
10342;BME280;5216;54.602;18.356;2024-03-23T06:01:18;100352.06;;;9.83;66.13
10342;BME280;5216;54.602;18.356;2024-03-23T06:03:43;100362.75;;;9.83;65.73
10342;BME280;5216;54.602;18.356;2024-03-23T06:06:10;100365.41;;;9.83;65.64
10342;BME280;5216;54.602;18.356;2024-03-23T06:08:38;100361.06;;;9.82;65.80
10342;BME280;5216;54.602;18.356;2024-03-23T06:11:04;100361.50;;;9.78;65.97
10342;BME280;5216;54.602;18.356;2024-03-23T06:13:33;100354.31;;;9.78;65.75
10342;BME280;5216;54.602;18.356;2024-03-23T06:16:00;100354.31;;;9.78;65.71
10342;BME280;5216;54.602;18.356;2024-03-23T06:18:25;100355.16;;;9.79;65.53
10342;BME280;5216;54.602;18.356;2024-03-23T06:20:51;100358.66;;;9.79;65.71
10342;BME280;5216;54.602;18.356;2024-03-23T06:23:17;100348.16;;;9.78;65.33
10342;BME280;5216;54.602;18.356;2024-03-23T06:25:45;100347.56;;;9.74;65.30
10342;BME280;5216;54.602;18.356;2024-03-23T06:28:11;100340.69;;;9.72;65.40
10342;BME280;5216;54.602;18.356;2024-03-23T06:30:39;100339.13;;;9.69;65.93
10342;BME280;5216;54.602;18.356;2024-03-23T06:33:04;100350.94;;;9.67;65.49
10342;BME280;5216;54.602;18.356;2024-03-23T06:35:33;100352.88;;;9.65;65.73
10342;BME280;5216;54.602;18.356;2024-03-23T06:37:59;100350.09;;;9.66;65.95
10342;BME280;5216;54.602;18.356;2024-03-23T06:40:24;100340.38;;;9.65;65.88
10342;BME280;5216;54.602;18.356;2024-03-23T06:42:50;100345.59;;;9.67;65.72
10342;BME280;5216;54.602;18.356;2024-03-23T06:45:16;100333.09;;;9.67;65.96
10342;BME280;5216;54.602;18.356;2024-03-23T06:47:42;100329.44;;;9.68;66.31
10342;BME280;5216;54.602;18.356;2024-03-23T06:50:08;100329.16;;;9.71;66.25
10342;BME280;5216;54.602;18.356;2024-03-23T06:52:35;100327.91;;;9.75;66.36
10342;BME280;5216;54.602;18.356;2024-03-23T06:55:01;100328.91;;;9.74;66.14
10342;BME280;5216;54.602;18.356;2024-03-23T06:57:29;100330.44;;;9.77;66.00
10342;BME280;5216;54.602;18.356;2024-03-23T06:59:55;100325.09;;;9.77;66.32
10342;BME280;5216;54.602;18.356;2024-03-23T07:02:21;100324.41;;;9.75;65.68
10342;BME280;5216;54.602;18.356;2024-03-23T07:04:46;100324.25;;;9.76;65.93
10342;BME280;5216;54.602;18.356;2024-03-23T07:07:12;100329.31;;;9.79;66.29
10342;BME280;5216;54.602;18.356;2024-03-23T07:09:38;100333.81;;;9.79;66.15
10342;BME280;5216;54.602;18.356;2024-03-23T07:12:04;100332.13;;;9.78;65.50
10342;BME280;5216;54.602;18.356;2024-03-23T07:14:30;100347.03;;;9.80;66.07
10342;BME280;5216;54.602;18.356;2024-03-23T07:16:55;100346.03;;;9.81;66.09
10342;BME280;5216;54.602;18.356;2024-03-23T07:19:21;100339.03;;;9.80;65.73
10342;BME280;5216;54.602;18.356;2024-03-23T07:21:46;100329.31;;;9.79;65.88
10342;BME280;5216;54.602;18.356;2024-03-23T07:24:13;100333.69;;;9.80;65.81
10342;BME280;5216;54.602;18.356;2024-03-23T07:26:39;100338.03;;;9.81;66.02
10342;BME280;5216;54.602;18.356;2024-03-23T07:29:06;100333.25;;;9.85;66.61
10342;BME280;5216;54.602;18.356;2024-03-23T07:31:32;100331.88;;;9.90;65.57
10342;BME280;5216;54.602;18.356;2024-03-23T07:33:58;100335.28;;;9.92;65.63
10342;BME280;5216;54.602;18.356;2024-03-23T07:36:23;100335.41;;;9.91;65.25
10342;BME280;5216;54.602;18.356;2024-03-23T07:38:49;100331.88;;;9.90;65.02
10342;BME280;5216;54.602;18.356;2024-03-23T07:41:17;100337.19;;;9.90;65.25
10342;BME280;5216;54.602;18.356;2024-03-23T07:43:43;100336.38;;;9.90;65.29
10342;BME280;5216;54.602;18.356;2024-03-23T07:46:09;100332.16;;;9.87;64.93
10342;BME280;5216;54.602;18.356;2024-03-23T07:48:35;100332.28;;;9.86;65.00
10342;BME280;5216;54.602;18.356;2024-03-23T07:51:06;100322.31;;;9.88;65.18
10342;BME280;5216;54.602;18.356;2024-03-23T07:53:32;100317.59;;;9.91;65.02
10342;BME280;5216;54.602;18.356;2024-03-23T07:56:00;100315.63;;;9.93;65.19
10342;BME280;5216;54.602;18.356;2024-03-23T07:58:26;100315.31;;;9.96;65.79
10342;BME280;5216;54.602;18.356;2024-03-23T08:00:53;100315.44;;;9.94;64.98
10342;BME280;5216;54.602;18.356;2024-03-23T08:03:18;100323.31;;;9.96;64.74
10342;BME280;5216;54.602;18.356;2024-03-23T08:05:44;100323.19;;;9.97;65.28
10342;BME280;5216;54.602;18.356;2024-03-23T08:08:10;100310.69;;;9.98;65.21
10342;BME280;5216;54.602;18.356;2024-03-23T08:10:37;100311.38;;;10.00;65.16
10342;BME280;5216;54.602;18.356;2024-03-23T08:13:03;100312.78;;;10.04;65.21
10342;BME280;5216;54.602;18.356;2024-03-23T08:15:32;100303.81;;;10.05;64.73
10342;BME280;5216;54.602;18.356;2024-03-23T08:18:00;100307.19;;;10.07;65.07
10342;BME280;5216;54.602;18.356;2024-03-23T08:20:26;100306.19;;;10.08;64.78
10342;BME280;5216;54.602;18.356;2024-03-23T08:22:52;100298.31;;;10.06;65.23
10342;BME280;5216;54.602;18.356;2024-03-23T08:25:18;100295.09;;;10.12;64.61
10342;BME280;5216;54.602;18.356;2024-03-23T08:27:46;100293.97;;;10.15;64.90
10342;BME280;5216;54.602;18.356;2024-03-23T08:30:12;100290.03;;;10.19;64.83
10342;BME280;5216;54.602;18.356;2024-03-23T08:32:38;100285.25;;;10.22;64.63
10342;BME280;5216;54.602;18.356;2024-03-23T08:35:07;100286.78;;;10.25;64.13
10342;BME280;5216;54.602;18.356;2024-03-23T08:37:36;100282.16;;;10.27;64.15
10342;BME280;5216;54.602;18.356;2024-03-23T08:40:01;100289.16;;;10.27;64.12
10342;BME280;5216;54.602;18.356;2024-03-23T08:42:28;100284.38;;;10.22;63.13
10342;BME280;5216;54.602;18.356;2024-03-23T08:44:53;100280.03;;;10.21;63.51
10342;BME280;5216;54.602;18.356;2024-03-23T08:47:19;100279.75;;;10.24;64.54
10342;BME280;5216;54.602;18.356;2024-03-23T08:49:45;100261.63;;;10.27;64.17
10342;BME280;5216;54.602;18.356;2024-03-23T08:52:10;100266.50;;;10.31;64.04
10342;BME280;5216;54.602;18.356;2024-03-23T08:54:36;100252.06;;;10.34;64.42
10342;BME280;5216;54.602;18.356;2024-03-23T08:57:01;100240.22;;;10.36;64.29
10342;BME280;5216;54.602;18.356;2024-03-23T08:59:27;100248.94;;;10.38;63.93
10342;BME280;5216;54.602;18.356;2024-03-23T09:01:53;100256.00;;;10.39;64.16
10342;BME280;5216;54.602;18.356;2024-03-23T09:04:19;100249.06;;;10.37;63.90
10342;BME280;5216;54.602;18.356;2024-03-23T09:06:45;100241.94;;;10.37;63.97
10342;BME280;5216;54.602;18.356;2024-03-23T09:09:10;100249.94;;;10.37;64.03
10342;BME280;5216;54.602;18.356;2024-03-23T09:11:36;100242.75;;;10.38;63.81
10342;BME280;5216;54.602;18.356;2024-03-23T09:14:03;100241.63;;;10.40;63.99
10342;BME280;5216;54.602;18.356;2024-03-23T09:16:29;100248.66;;;10.41;63.77
10342;BME280;5216;54.602;18.356;2024-03-23T09:18:54;100235.44;;;10.40;63.55
10342;BME280;5216;54.602;18.356;2024-03-23T09:21:20;100237.13;;;10.41;63.17
10342;BME280;5216;54.602;18.356;2024-03-23T09:23:46;100231.38;;;10.36;62.89
10342;BME280;5216;54.602;18.356;2024-03-23T09:26:12;100227.84;;;10.35;62.57
10342;BME280;5216;54.602;18.356;2024-03-23T09:28:38;100235.16;;;10.33;62.96
10342;BME280;5216;54.602;18.356;2024-03-23T09:33:30;100232.09;;;10.38;63.47
10342;BME280;5216;54.602;18.356;2024-03-23T09:35:55;100225.59;;;10.40;62.92
10342;BME280;5216;54.602;18.356;2024-03-23T09:38:24;100228.41;;;10.39;62.45
10342;BME280;5216;54.602;18.356;2024-03-23T09:40:52;100236.88;;;10.34;62.41
10342;BME280;5216;54.602;18.356;2024-03-23T09:43:19;100215.50;;;10.34;62.82
10342;BME280;5216;54.602;18.356;2024-03-23T09:45:45;100209.88;;;10.37;62.63
10342;BME280;5216;54.602;18.356;2024-03-23T09:48:11;100207.91;;;10.39;62.75
10342;BME280;5216;54.602;18.356;2024-03-23T09:50:38;100210.97;;;10.44;62.86
10342;BME280;5216;54.602;18.356;2024-03-23T09:53:06;100216.03;;;10.47;62.73
10342;BME280;5216;54.602;18.356;2024-03-23T09:55:32;100211.53;;;10.48;62.22
10342;BME280;5216;54.602;18.356;2024-03-23T09:57:57;100209.69;;;10.48;61.85
10342;BME280;5216;54.602;18.356;2024-03-23T10:00:23;100210.38;;;10.50;61.90
10342;BME280;5216;54.602;18.356;2024-03-23T10:02:49;100196.31;;;10.48;61.75
10342;BME280;5216;54.602;18.356;2024-03-23T10:05:24;100197.31;;;10.47;61.76
10342;BME280;5216;54.602;18.356;2024-03-23T10:07:52;100189.31;;;10.47;61.72
10342;BME280;5216;54.602;18.356;2024-03-23T10:10:18;100199.00;;;10.48;61.79
10342;BME280;5216;54.602;18.356;2024-03-23T10:12:45;100197.16;;;10.49;61.31
10342;BME280;5216;54.602;18.356;2024-03-23T10:15:22;100210.69;;;10.47;61.50
10342;BME280;5216;54.602;18.356;2024-03-23T10:17:47;100196.31;;;10.48;61.63
10342;BME280;5216;54.602;18.356;2024-03-23T10:20:19;100192.69;;;10.49;61.44
10342;BME280;5216;54.602;18.356;2024-03-23T10:22:45;100200.25;;;10.54;61.47
10342;BME280;5216;54.602;18.356;2024-03-23T10:25:12;100186.06;;;10.53;61.17
10342;BME280;5216;54.602;18.356;2024-03-23T10:27:39;100190.13;;;10.57;61.19
10342;BME280;5216;54.602;18.356;2024-03-23T10:30:12;100189.81;;;10.60;61.51
10342;BME280;5216;54.602;18.356;2024-03-23T10:32:38;100185.84;;;10.64;60.59
10342;BME280;5216;54.602;18.356;2024-03-23T10:35:17;100186.84;;;10.63;60.07
10342;BME280;5216;54.602;18.356;2024-03-23T10:37:48;100186.53;;;10.66;60.45
10342;BME280;5216;54.602;18.356;2024-03-23T10:40:17;100186.53;;;10.66;59.36
10342;BME280;5216;54.602;18.356;2024-03-23T10:42:46;100183.88;;;10.66;59.53
10342;BME280;5216;54.602;18.356;2024-03-23T10:45:14;100180.22;;;10.67;59.50
10342;BME280;5216;54.602;18.356;2024-03-23T10:47:40;100163.88;;;10.70;59.21
10342;BME280;5216;54.602;18.356;2024-03-23T10:50:06;100166.56;;;10.70;58.62
10342;BME280;5216;54.602;18.356;2024-03-23T10:52:35;100172.59;;;10.72;58.61
10342;BME280;5216;54.602;18.356;2024-03-23T10:55:04;100172.59;;;10.72;58.66
10342;BME280;5216;54.602;18.356;2024-03-23T10:57:55;100172.44;;;10.73;58.06
10342;BME280;5216;54.602;18.356;2024-03-23T11:00:23;100166.13;;;10.74;57.74
10342;BME280;5216;54.602;18.356;2024-03-23T11:02:51;100169.63;;;10.75;58.12
10342;BME280;5216;54.602;18.356;2024-03-23T11:07:50;100170.59;;;10.74;57.37
10342;BME280;5216;54.602;18.356;2024-03-23T11:10:28;100158.94;;;10.75;57.19
10342;BME280;5216;54.602;18.356;2024-03-23T11:12:58;100154.56;;;10.74;57.61
10342;BME280;5216;54.602;18.356;2024-03-23T11:15:23;100153.44;;;10.76;57.52
10342;BME280;5216;54.602;18.356;2024-03-23T11:18:06;100149.31;;;10.82;57.78
10342;BME280;5216;54.602;18.356;2024-03-23T11:20:35;100156.91;;;10.86;57.63
10342;BME280;5216;54.602;18.356;2024-03-23T11:23:01;100153.09;;;10.89;57.55
10342;BME280;5216;54.602;18.356;2024-03-23T11:25:27;100139.44;;;10.92;57.04
10342;BME280;5216;54.602;18.356;2024-03-23T11:27:55;100139.13;;;10.95;57.26
10342;BME280;5216;54.602;18.356;2024-03-23T11:30:24;100141.19;;;11.01;57.63
10342;BME280;5216;54.602;18.356;2024-03-23T11:32:51;100128.22;;;11.05;57.56
10342;BME280;5216;54.602;18.356;2024-03-23T11:38:14;100128.44;;;11.12;57.27
10342;BME280;5216;54.602;18.356;2024-03-23T11:40:45;100125.50;;;11.15;57.44
10342;BME280;5216;54.602;18.356;2024-03-23T11:43:16;100119.97;;;11.16;56.71
10342;BME280;5216;54.602;18.356;2024-03-23T11:45:46;100118.97;;;11.17;56.92
10342;BME280;5216;54.602;18.356;2024-03-23T11:48:16;100112.13;;;11.15;56.49
10342;BME280;5216;54.602;18.356;2024-03-23T11:50:46;100115.63;;;11.15;55.96
10342;BME280;5216;54.602;18.356;2024-03-23T11:53:22;100110.97;;;11.17;56.46
10342;BME280;5216;54.602;18.356;2024-03-23T11:55:50;100111.50;;;11.21;56.45
10342;BME280;5216;54.602;18.356;2024-03-23T11:58:18;100114.88;;;11.23;56.44
10342;BME280;5216;54.602;18.356;2024-03-23T12:00:57;100123.41;;;11.26;56.06
10342;BME280;5216;54.602;18.356;2024-03-23T12:03:24;100126.94;;;11.27;55.73
10342;BME280;5216;54.602;18.356;2024-03-23T12:06:03;100116.25;;;11.27;55.20
10342;BME280;5216;54.602;18.356;2024-03-23T12:08:33;100107.34;;;11.26;55.52
10342;BME280;5216;54.602;18.356;2024-03-23T12:13:32;100108.03;;;11.28;55.42
10342;BME280;5216;54.602;18.356;2024-03-23T12:16:17;100107.22;;;11.28;55.58
10342;BME280;5216;54.602;18.356;2024-03-23T12:18:48;100103.69;;;11.27;56.01
10342;BME280;5216;54.602;18.356;2024-03-23T12:21:15;100100.69;;;11.30;56.24
10342;BME280;5216;54.602;18.356;2024-03-23T12:23:41;100093.34;;;11.32;56.10
10342;BME280;5216;54.602;18.356;2024-03-23T12:26:08;100086.03;;;11.34;56.03
10342;BME280;5216;54.602;18.356;2024-03-23T12:28:34;100085.44;;;11.40;55.81
10342;BME280;5216;54.602;18.356;2024-03-23T12:31:00;100082.84;;;11.48;56.28
10342;BME280;5216;54.602;18.356;2024-03-23T12:33:26;100069.22;;;11.59;56.74
10342;BME280;5216;54.602;18.356;2024-03-23T12:35:51;100071.94;;;11.67;56.46
10342;BME280;5216;54.602;18.356;2024-03-23T12:38:17;100070.97;;;11.68;56.03
10342;BME280;5216;54.602;18.356;2024-03-23T12:40:46;100066.28;;;11.70;56.25
10342;BME280;5216;54.602;18.356;2024-03-23T12:43:13;100078.66;;;11.71;55.63
10342;BME280;5216;54.602;18.356;2024-03-23T12:45:39;100061.09;;;11.68;55.22
10342;BME280;5216;54.602;18.356;2024-03-23T12:48:05;100062.94;;;11.68;54.89
10342;BME280;5216;54.602;18.356;2024-03-23T12:50:33;100057.88;;;11.65;55.13
10342;BME280;5216;54.602;18.356;2024-03-23T12:53:01;100061.56;;;11.64;55.48
10342;BME280;5216;54.602;18.356;2024-03-23T12:55:27;100054.38;;;11.64;56.25
10342;BME280;5216;54.602;18.356;2024-03-23T12:57:53;100055.88;;;11.67;56.79
10342;BME280;5216;54.602;18.356;2024-03-23T13:00:18;100057.25;;;11.71;56.76
10342;BME280;5216;54.602;18.356;2024-03-23T13:02:44;100053.59;;;11.72;56.59
10342;BME280;5216;54.602;18.356;2024-03-23T13:05:10;100050.75;;;11.73;56.88
10342;BME280;5216;54.602;18.356;2024-03-23T13:07:35;100049.91;;;11.73;56.27
10342;BME280;5216;54.602;18.356;2024-03-23T13:10:03;100053.59;;;11.72;55.75
10342;BME280;5216;54.602;18.356;2024-03-23T13:12:29;100047.91;;;11.75;55.76
10342;BME280;5216;54.602;18.356;2024-03-23T13:14:55;100041.72;;;11.74;55.77
10342;BME280;5216;54.602;18.356;2024-03-23T13:17:20;100033.53;;;11.76;55.72
10342;BME280;5216;54.602;18.356;2024-03-23T13:19:46;100041.41;;;11.77;55.23
10342;BME280;5216;54.602;18.356;2024-03-23T13:22:11;100046.91;;;11.76;54.72
10342;BME280;5216;54.602;18.356;2024-03-23T13:24:37;100040.88;;;11.74;54.98
10342;BME280;5216;54.602;18.356;2024-03-23T13:27:03;100030.19;;;11.74;54.81
10342;BME280;5216;54.602;18.356;2024-03-23T13:29:33;100031.34;;;11.71;53.97
10342;BME280;5216;54.602;18.356;2024-03-23T13:32:00;100038.34;;;11.72;54.18
10342;BME280;5216;54.602;18.356;2024-03-23T13:34:26;100044.38;;;11.74;54.09
10342;BME280;5216;54.602;18.356;2024-03-23T13:36:51;100050.09;;;11.71;54.00
10342;BME280;5216;54.602;18.356;2024-03-23T13:39:17;100048.22;;;11.72;53.66
10342;BME280;5216;54.602;18.356;2024-03-23T13:41:44;100052.75;;;11.71;53.91
10342;BME280;5216;54.602;18.356;2024-03-23T13:44:13;100056.41;;;11.70;53.69
10342;BME280;5216;54.602;18.356;2024-03-23T13:46:43;100048.53;;;11.69;53.08
10342;BME280;5216;54.602;18.356;2024-03-23T13:49:27;100053.88;;;11.69;53.55
10342;BME280;5216;54.602;18.356;2024-03-23T13:51:54;100043.19;;;11.69;53.20
10342;BME280;5216;54.602;18.356;2024-03-23T13:54:20;100054.91;;;11.68;53.28
10342;BME280;5216;54.602;18.356;2024-03-23T13:56:50;100051.53;;;11.66;52.62